Degrasse, New York
Current Conditions -  °F | °C
As of 6:09 AM on Friday 19 Dec 2014 (Local Time) from KGTB Reporting Station
Overcast Overcast  
Wind Chill: 13°   Ceiling: 300
Heat Index: 21°   Visibility: 10mi
Dew Point: 19°   Wind: 7mph
Humidity: 93%   Direction: 360°N
Pressure: 30.04"   Gusts: NA
Location:  44.3602°N, 75.0433°W
Report Text: KGTB 191109Z AUTO 36006KT 10SM OVC003 M06/M07 A3004 RMK AO2
Loading
Personal Weather Stations






























Interactive Weather Map New forecast layout! Learn more

10-Day Weather Forecast

Advertisements
Track Severe Weather on mobile